Terminal Aerodrome Forecast
Issued by NWS

Home | Current Version | Previous Version | Text Only | Print | Product List | Glossary On
Versions: 1 2 3 4 5 6 7 8 9 10 11 12 13 14 15 16 17 18 19 20 21
000
FTUS44 KLZK 232011 AAA
TAFLLQ
TAF AMD
KLLQ 232011Z 2320/2418 04006KT P6SM OVC015
     FM240100 08003KT 4SM -RA BR OVC007
     FM240600 18007KT 5SM BR OVC015=

USA.gov is the U.S. government's official web portal to all federal, state and local government web resources and services.